createdAt,value
2022-10-18T00:00:24.870Z,7.30
2022-10-18T00:02:52.402Z,8.67
2022-10-18T00:05:21.230Z,9.63
2022-10-18T00:07:48.704Z,8.43
2022-10-18T00:10:16.374Z,12.43
2022-10-18T00:12:44.140Z,11.37
2022-10-18T00:15:12.146Z,12.17
2022-10-18T00:17:40.262Z,7.87
2022-10-18T00:20:08.627Z,9.43
2022-10-18T00:22:38.986Z,18.47
2022-10-18T00:25:07.945Z,9.87
2022-10-18T00:27:36.242Z,10.17
2022-10-18T00:30:04.521Z,12.73
2022-10-18T00:32:32.360Z,11.47
2022-10-18T00:35:00.030Z,11.23
2022-10-18T00:37:27.585Z,11.77
2022-10-18T00:39:56.476Z,10.47
2022-10-18T00:42:26.438Z,10.93
2022-10-18T00:45:15.803Z,11.03
2022-10-18T00:47:44.974Z,6.27
2022-10-18T00:50:12.941Z,8.87
2022-10-18T00:52:41.700Z,11.53
2022-10-18T00:55:11.228Z,9.53
2022-10-18T00:57:39.583Z,11.50
2022-10-18T01:00:09.899Z,16.27
2022-10-18T01:02:37.799Z,8.77
2022-10-18T01:05:05.905Z,10.73
2022-10-18T01:07:42.837Z,9.20
2022-10-18T01:10:19.979Z,8.93
2022-10-18T01:12:53.124Z,9.60
2022-10-18T01:15:25.405Z,10.50
2022-10-18T01:17:58.610Z,13.33
2022-10-18T01:20:49.705Z,10.33
2022-10-18T01:23:21.338Z,9.13
2022-10-18T01:25:57.292Z,12.13
2022-10-18T01:28:36.699Z,14.27
2022-10-18T01:31:06.987Z,7.30
2022-10-18T01:33:38.938Z,6.40
2022-10-18T01:36:10.690Z,6.90
2022-10-18T01:38:38.909Z,9.93
2022-10-18T01:41:11.734Z,9.17
2022-10-18T01:43:42.984Z,11.07
2022-10-18T01:46:12.742Z,8.57
2022-10-18T01:48:40.410Z,9.03
2022-10-18T01:51:07.930Z,9.97
2022-10-18T01:53:36.168Z,12.27
2022-10-18T01:56:17.677Z,10.93
2022-10-18T01:58:52.334Z,13.50
2022-10-18T02:01:29.150Z,10.03
2022-10-18T02:03:59.098Z,8.27
2022-10-18T02:06:30.140Z,9.10
2022-10-18T02:09:00.836Z,12.33
2022-10-18T02:11:30.052Z,11.97
2022-10-18T02:14:00.364Z,14.17
2022-10-18T02:16:31.921Z,8.17
2022-10-18T02:19:02.435Z,10.33
2022-10-18T02:21:30.979Z,9.07
2022-10-18T02:24:01.514Z,13.23
2022-10-18T02:26:29.114Z,9.87
2022-10-18T02:28:56.643Z,12.13
2022-10-18T02:31:27.318Z,9.73
2022-10-18T02:33:58.317Z,12.77
2022-10-18T02:36:28.505Z,7.73
2022-10-18T02:39:00.281Z,10.17
2022-10-18T02:41:28.370Z,8.90
2022-10-18T02:43:55.892Z,11.67
2022-10-18T02:46:23.575Z,10.30
2022-10-18T02:48:51.076Z,12.13
2022-10-18T02:51:19.949Z,11.13
2022-10-18T02:53:47.494Z,10.47
2022-10-18T02:56:15.005Z,8.57
2022-10-18T02:58:42.658Z,14.87
2022-10-18T03:01:10.324Z,8.83
2022-10-18T03:03:37.865Z,10.40
2022-10-18T03:06:05.709Z,10.77
2022-10-18T03:08:34.522Z,12.07
2022-10-18T03:11:02.116Z,11.90
2022-10-18T03:16:02.744Z,8.53
2022-10-18T03:18:30.394Z,12.40
2022-10-18T03:20:57.869Z,11.07
2022-10-18T03:23:25.520Z,8.73
2022-10-18T03:25:54.458Z,15.47
2022-10-18T03:28:22.064Z,12.57
2022-10-18T03:30:49.587Z,13.63
2022-10-18T03:33:17.119Z,11.33
2022-10-18T03:35:44.660Z,12.87
2022-10-18T03:38:12.328Z,10.07
2022-10-18T03:40:39.905Z,10.60
2022-10-18T03:43:08.775Z,11.37
2022-10-18T03:45:36.273Z,18.07
2022-10-18T03:48:03.839Z,14.43
2022-10-18T03:50:31.507Z,14.37
2022-10-18T03:52:59.113Z,11.80
2022-10-18T03:55:26.658Z,11.10
2022-10-18T03:57:54.450Z,14.30
2022-10-18T04:00:23.662Z,9.43
2022-10-18T04:02:53.491Z,17.43
2022-10-18T04:05:24.103Z,12.03
2022-10-18T04:07:51.830Z,9.93
2022-10-18T04:10:19.814Z,11.40
2022-10-18T04:12:47.328Z,11.93
2022-10-18T04:15:14.925Z,10.20
2022-10-18T04:17:43.989Z,8.23
2022-10-18T04:20:12.323Z,11.20
2022-10-18T04:22:39.868Z,12.07
2022-10-18T04:25:07.892Z,9.60
2022-10-18T04:27:35.693Z,14.23
2022-10-18T04:30:03.438Z,13.17
2022-10-18T04:32:30.902Z,9.50
2022-10-18T04:34:59.766Z,14.00
2022-10-18T04:37:27.498Z,8.50
2022-10-18T04:39:55.159Z,15.27
2022-10-18T04:42:23.051Z,11.27
2022-10-18T04:44:50.731Z,19.40
2022-10-18T04:47:18.279Z,12.47
2022-10-18T04:49:45.812Z,13.87
2022-10-18T04:52:14.741Z,12.93
2022-10-18T04:54:42.198Z,14.10
2022-10-18T04:57:09.729Z,11.73
2022-10-18T04:59:37.375Z,11.00
2022-10-18T05:02:05.051Z,16.13
2022-10-18T05:04:32.801Z,14.53
2022-10-18T05:07:00.342Z,12.33
2022-10-18T05:09:29.244Z,12.60
2022-10-18T05:11:56.773Z,19.47
2022-10-18T05:14:24.261Z,15.00
2022-10-18T05:16:51.753Z,14.80
2022-10-18T05:19:19.351Z,15.13
2022-10-18T05:21:46.841Z,13.83
2022-10-18T05:24:14.404Z,14.93
2022-10-18T05:26:43.276Z,12.07
2022-10-18T05:29:10.852Z,10.97
2022-10-18T05:31:38.526Z,14.33
2022-10-18T05:34:06.025Z,12.97
2022-10-18T05:36:33.563Z,9.93
2022-10-18T05:39:04.130Z,11.63
2022-10-18T05:41:32.661Z,12.90
2022-10-18T05:44:04.026Z,14.40
2022-10-18T05:46:31.699Z,11.97
2022-10-18T05:48:59.176Z,11.57
2022-10-18T05:51:26.669Z,11.87
2022-10-18T05:53:54.708Z,16.27
2022-10-18T05:56:22.184Z,16.17
2022-10-18T05:58:51.492Z,8.90
2022-10-18T06:01:20.505Z,13.43
2022-10-18T06:03:48.377Z,14.30
2022-10-18T06:06:16.498Z,20.23
2022-10-18T06:08:44.942Z,18.70
2022-10-18T06:11:14.493Z,16.07
2022-10-18T06:13:42.981Z,17.97
2022-10-18T06:16:11.336Z,17.97
2022-10-18T06:18:40.766Z,14.10
2022-10-18T06:21:08.772Z,18.40
2022-10-18T06:23:36.301Z,17.20
2022-10-18T06:26:16.070Z,18.57
2022-10-18T06:28:43.610Z,14.33
2022-10-18T06:31:11.898Z,12.00
2022-10-18T06:33:40.761Z,15.63
2022-10-18T06:36:09.454Z,16.53
2022-10-18T06:38:37.109Z,15.20
2022-10-18T06:41:05.750Z,15.27
2022-10-18T06:43:33.357Z,18.03
2022-10-18T06:46:03.098Z,25.23
2022-10-18T06:48:32.089Z,20.90
2022-10-18T06:51:03.012Z,20.80
2022-10-18T06:53:32.179Z,21.70
2022-10-18T06:56:01.523Z,19.23
2022-10-18T06:58:29.232Z,18.90
2022-10-18T07:00:56.955Z,21.93
2022-10-18T07:03:24.522Z,21.03
2022-10-18T07:05:51.992Z,19.53
2022-10-18T07:08:20.899Z,14.57
2022-10-18T07:10:54.478Z,15.97
2022-10-18T07:13:37.576Z,15.20
2022-10-18T07:16:06.822Z,17.53
2022-10-18T07:18:35.915Z,16.50
2022-10-18T07:21:04.566Z,15.23
2022-10-18T07:23:34.963Z,17.70
2022-10-18T07:26:03.054Z,17.07
2022-10-18T07:28:30.769Z,18.47
2022-10-18T07:31:02.422Z,17.00
2022-10-18T07:33:33.332Z,21.23
2022-10-18T07:36:02.828Z,20.23
2022-10-18T07:38:30.678Z,18.60
2022-10-18T07:40:59.957Z,21.00
2022-10-18T07:43:27.514Z,23.43
2022-10-18T07:45:55.844Z,20.47
2022-10-18T07:48:23.733Z,27.47
2022-10-18T07:50:51.296Z,25.07
2022-10-18T07:53:19.010Z,25.70
2022-10-18T07:55:46.574Z,29.97
2022-10-18T07:58:15.401Z,32.03
2022-10-18T08:00:42.918Z,37.93
2022-10-18T08:03:10.376Z,37.97
2022-10-18T08:05:37.863Z,43.90
2022-10-18T08:08:07.960Z,42.03
2022-10-18T08:10:36.173Z,39.13
2022-10-18T08:13:03.876Z,46.50
2022-10-18T08:15:32.687Z,61.80
2022-10-18T08:18:00.233Z,53.50
2022-10-18T08:20:30.994Z,56.07
2022-10-18T08:23:00.456Z,59.27
2022-10-18T08:25:28.693Z,66.70
2022-10-18T08:27:56.327Z,57.37
2022-10-18T08:30:24.204Z,53.20
2022-10-18T08:32:53.182Z,58.27
2022-10-18T08:35:20.748Z,55.67
2022-10-18T08:37:48.439Z,51.03
2022-10-18T08:40:16.373Z,56.83
2022-10-18T08:42:54.689Z,58.70
2022-10-18T08:45:40.866Z,58.40
2022-10-18T08:48:18.049Z,63.60
2022-10-18T08:50:45.844Z,65.57
2022-10-18T08:53:18.624Z,61.47
2022-10-18T08:55:47.399Z,70.33
2022-10-18T08:58:18.393Z,73.03
2022-10-18T09:00:51.447Z,70.80
2022-10-18T09:03:28.835Z,80.93
2022-10-18T09:06:00.778Z,81.10
2022-10-18T09:08:47.777Z,79.30
2022-10-18T09:11:28.413Z,72.83
2022-10-18T09:14:13.946Z,83.37
2022-10-18T09:16:46.938Z,73.60
2022-10-18T09:19:23.978Z,92.57
2022-10-18T09:21:53.968Z,77.13
2022-10-18T09:24:27.951Z,78.67
2022-10-18T09:27:01.205Z,73.80
2022-10-18T09:29:48.868Z,75.27
2022-10-18T09:32:26.601Z,86.07
2022-10-18T09:34:58.020Z,76.03
2022-10-18T09:37:26.154Z,78.63
2022-10-18T09:39:57.706Z,72.13
2022-10-18T09:42:29.552Z,74.37
2022-10-18T09:45:00.553Z,71.33
2022-10-18T09:50:09.737Z,68.77
2022-10-18T09:52:40.643Z,68.60
2022-10-18T09:55:14.482Z,72.33
2022-10-18T09:57:45.265Z,65.63
2022-10-18T10:00:17.488Z,65.30
2022-10-18T10:02:45.049Z,62.33
2022-10-18T10:05:15.369Z,70.00
2022-10-18T10:07:45.017Z,64.77
2022-10-18T10:10:16.089Z,65.50
2022-10-18T10:12:43.940Z,62.87
2022-10-18T10:15:18.997Z,66.83
2022-10-18T10:17:47.562Z,60.03
2022-10-18T10:20:19.968Z,67.30
2022-10-18T10:22:48.371Z,65.63
2022-10-18T10:25:22.633Z,60.90
2022-10-18T10:27:50.441Z,61.13
2022-10-18T10:30:26.931Z,65.03
2022-10-18T10:32:55.157Z,67.00
2022-10-18T10:35:42.101Z,62.03
2022-10-18T10:38:25.252Z,59.53
2022-10-18T10:40:53.047Z,64.70
2022-10-18T10:43:40.040Z,69.30
2022-10-18T10:46:10.100Z,73.43
2022-10-18T10:48:43.277Z,60.70
2022-10-18T10:51:12.373Z,71.53
2022-10-18T10:53:45.400Z,93.73
2022-10-18T10:56:25.726Z,106.73
2022-10-18T10:58:54.439Z,117.63
2022-10-18T11:01:26.085Z,117.53
2022-10-18T11:03:55.594Z,122.60
2022-10-18T11:06:49.818Z,122.93
2022-10-18T11:09:34.737Z,133.13
2022-10-18T11:12:20.188Z,125.13
2022-10-18T11:14:52.324Z,121.87
2022-10-18T11:17:26.496Z,126.43
2022-10-18T11:20:05.261Z,125.57
2022-10-18T11:22:38.282Z,106.60
2022-10-18T11:25:06.766Z,101.90
2022-10-18T11:27:37.756Z,97.77
2022-10-18T11:30:20.372Z,97.27
2022-10-18T11:32:50.787Z,100.33
2022-10-18T11:35:30.601Z,106.23
2022-10-18T11:38:06.993Z,102.17
2022-10-18T11:40:47.295Z,102.10
2022-10-18T11:43:19.486Z,93.50
2022-10-18T11:45:52.625Z,86.47
2022-10-18T11:48:41.744Z,80.80
2022-10-18T11:51:11.977Z,66.27
2022-10-18T11:53:49.561Z,66.23
2022-10-18T11:56:25.026Z,67.77
2022-10-18T11:59:03.870Z,60.00
2022-10-18T12:01:35.612Z,57.67
2022-10-18T12:04:05.943Z,60.33
2022-10-18T12:06:36.158Z,55.63
2022-10-18T12:09:08.502Z,54.80
2022-10-18T12:11:42.907Z,63.07
2022-10-18T12:14:18.536Z,48.17
2022-10-18T12:16:51.402Z,51.23
2022-10-18T12:19:25.214Z,50.73
2022-10-18T12:21:55.088Z,44.13
2022-10-18T12:24:26.670Z,39.30
2022-10-18T12:26:59.002Z,37.13
2022-10-18T12:29:29.917Z,33.47
2022-10-18T12:31:58.712Z,34.33
2022-10-18T12:34:29.637Z,38.27
2022-10-18T12:37:26.292Z,31.53
2022-10-18T12:40:18.573Z,27.60
2022-10-18T12:42:48.673Z,29.60
2022-10-18T12:45:25.740Z,36.17
2022-10-18T12:47:53.550Z,32.63
2022-10-18T12:50:30.023Z,26.07
2022-10-18T12:53:17.284Z,31.63
2022-10-18T12:55:47.974Z,29.23
2022-10-18T12:58:29.970Z,26.07
2022-10-18T13:01:03.111Z,23.17
2022-10-18T13:03:56.094Z,21.47
2022-10-18T13:06:24.262Z,28.20
2022-10-18T13:09:11.225Z,21.27
2022-10-18T13:11:40.339Z,21.90
2022-10-18T13:14:21.697Z,21.30
2022-10-18T13:16:54.075Z,18.97
2022-10-18T13:19:26.326Z,22.77
2022-10-18T13:22:01.027Z,17.70
2022-10-18T13:24:34.757Z,18.17
2022-10-18T13:27:41.342Z,21.40
2022-10-18T13:30:32.533Z,15.27
2022-10-18T13:33:10.153Z,12.30
2022-10-18T13:35:55.459Z,13.10
2022-10-18T13:38:37.191Z,14.60
2022-10-18T13:41:06.626Z,13.50
2022-10-18T13:43:58.492Z,17.33
2022-10-18T13:47:09.947Z,26.13
2022-10-18T13:49:59.318Z,22.33
2022-10-18T13:52:37.696Z,29.37
2022-10-18T13:55:22.494Z,18.10
2022-10-18T13:57:58.033Z,22.00
2022-10-18T14:00:48.217Z,22.40
2022-10-18T14:06:33.846Z,18.37
2022-10-18T14:09:09.737Z,18.17
2022-10-18T14:11:49.516Z,15.63
2022-10-18T14:14:19.821Z,17.07
2022-10-18T14:16:49.749Z,14.30
2022-10-18T14:19:21.278Z,17.87
2022-10-18T14:21:55.305Z,17.60
2022-10-18T14:24:25.132Z,15.13
2022-10-18T14:27:17.514Z,15.70
2022-10-18T14:29:45.245Z,15.77
2022-10-18T14:32:23.406Z,15.17
2022-10-18T14:34:51.405Z,15.77
2022-10-18T14:37:27.604Z,15.87
2022-10-18T14:39:55.477Z,16.80
2022-10-18T14:42:24.709Z,15.27
2022-10-18T14:44:54.431Z,17.47
2022-10-18T14:47:25.568Z,14.00
2022-10-18T14:49:54.644Z,14.47
2022-10-18T14:52:26.390Z,15.17
2022-10-18T14:54:55.939Z,19.87
2022-10-18T14:57:25.124Z,17.47
2022-10-18T14:59:57.082Z,14.70
2022-10-18T15:02:26.423Z,18.87
2022-10-18T15:04:59.615Z,18.30
2022-10-18T15:07:30.496Z,11.83
2022-10-18T15:09:59.433Z,16.63
2022-10-18T15:12:29.626Z,13.40
2022-10-18T15:14:59.786Z,15.70
2022-10-18T15:17:29.759Z,19.07
2022-10-18T15:20:01.955Z,14.93
2022-10-18T15:22:34.993Z,16.10
2022-10-18T15:25:22.915Z,9.97
2022-10-18T15:27:51.984Z,15.80
2022-10-18T15:30:25.316Z,18.00
2022-10-18T15:32:54.213Z,17.83
2022-10-18T15:35:26.583Z,17.20
2022-10-18T15:38:03.533Z,20.73
2022-10-18T15:40:37.338Z,22.17
2022-10-18T15:43:06.861Z,13.47
2022-10-18T15:45:37.870Z,22.97
2022-10-18T15:48:34.885Z,17.80
2022-10-18T15:51:04.746Z,14.17
2022-10-18T15:53:43.507Z,16.17
2022-10-18T15:56:14.860Z,13.87
2022-10-18T15:58:44.056Z,22.27
2022-10-18T16:01:17.267Z,14.40
2022-10-18T16:03:45.310Z,16.47
2022-10-18T16:06:16.040Z,13.37
2022-10-18T16:08:49.705Z,13.47
2022-10-18T16:11:18.998Z,11.90
2022-10-18T16:13:47.373Z,8.87
2022-10-18T16:16:17.626Z,10.70
2022-10-18T16:18:45.471Z,17.20
2022-10-18T16:21:20.505Z,19.43
2022-10-18T16:23:50.362Z,9.53
2022-10-18T16:26:18.892Z,14.30
2022-10-18T16:28:46.897Z,14.13
2022-10-18T16:31:17.689Z,12.23
2022-10-18T16:33:45.563Z,14.93
2022-10-18T16:36:15.892Z,12.73
2022-10-18T16:38:44.400Z,23.30
2022-10-18T16:41:15.934Z,12.40
2022-10-18T16:43:44.681Z,20.27
2022-10-18T16:46:16.570Z,22.70
2022-10-18T16:48:45.189Z,14.07
2022-10-18T16:51:13.463Z,12.77
2022-10-18T16:53:41.448Z,14.30
2022-10-18T16:56:15.444Z,14.07
2022-10-18T16:58:43.493Z,10.67
2022-10-18T17:01:12.777Z,16.33
2022-10-18T17:03:40.758Z,22.43
2022-10-18T17:06:14.659Z,12.40
2022-10-18T17:08:42.233Z,13.77
2022-10-18T17:11:10.943Z,10.70
2022-10-18T17:13:40.096Z,15.90
2022-10-18T17:16:08.325Z,26.17
2022-10-18T17:18:35.823Z,15.90
2022-10-18T17:21:03.488Z,12.03
2022-10-18T17:23:31.281Z,12.13
2022-10-18T17:26:08.549Z,18.57
2022-10-18T17:28:51.062Z,17.67
2022-10-18T17:31:18.733Z,20.10
2022-10-18T17:33:46.249Z,12.23
2022-10-18T17:36:14.203Z,11.97
2022-10-18T17:38:42.093Z,19.83
2022-10-18T17:41:10.117Z,13.07
2022-10-18T17:43:38.153Z,18.77
2022-10-18T17:46:07.742Z,21.93
2022-10-18T17:48:35.423Z,19.17
2022-10-18T17:51:07.686Z,13.50
2022-10-18T17:53:35.302Z,16.40
2022-10-18T17:56:04.368Z,19.00
2022-10-18T17:58:32.348Z,23.00
2022-10-18T18:01:11.140Z,13.50
2022-10-18T18:03:38.672Z,23.03
2022-10-18T18:06:16.542Z,13.87
2022-10-18T18:08:44.070Z,12.43
2022-10-18T18:11:11.741Z,20.47
2022-10-18T18:13:39.301Z,16.23
2022-10-18T18:16:16.193Z,15.37
2022-10-18T18:18:44.005Z,11.70
2022-10-18T18:21:11.587Z,12.10
2022-10-18T18:23:39.081Z,12.73
2022-10-18T18:26:06.933Z,15.33
2022-10-18T18:28:36.069Z,19.40
2022-10-18T18:31:06.693Z,13.90
2022-10-18T18:33:35.915Z,17.87
2022-10-18T18:36:04.751Z,14.97
2022-10-18T18:38:32.797Z,13.80
2022-10-18T18:41:04.656Z,22.07
2022-10-18T18:43:32.427Z,30.67
2022-10-18T18:46:01.220Z,17.63
2022-10-18T18:48:29.783Z,28.40
2022-10-18T18:50:59.199Z,28.13
2022-10-18T18:53:29.510Z,25.57
2022-10-18T18:56:02.923Z,30.80
2022-10-18T18:58:30.825Z,17.20
2022-10-18T19:00:58.463Z,19.13
2022-10-18T19:03:26.047Z,17.53
2022-10-18T19:06:04.786Z,15.27
2022-10-18T19:08:32.669Z,17.83
2022-10-18T19:11:00.209Z,24.07
2022-10-18T19:13:27.709Z,27.33
2022-10-18T19:16:23.384Z,19.10
2022-10-18T19:18:52.651Z,18.43
2022-10-18T19:21:22.234Z,19.77
2022-10-18T19:23:50.070Z,19.63
2022-10-18T19:26:26.005Z,17.90
2022-10-18T19:28:53.620Z,21.13
2022-10-18T19:31:21.138Z,28.43
2022-10-18T19:33:59.230Z,20.67
2022-10-18T19:36:29.304Z,24.50
2022-10-18T19:38:57.143Z,17.37
2022-10-18T19:43:53.108Z,16.63
2022-10-18T19:46:20.586Z,22.83
2022-10-18T19:48:48.053Z,18.33
2022-10-18T19:51:19.520Z,27.70
2022-10-18T19:53:51.789Z,20.00
2022-10-18T19:56:23.193Z,15.40
2022-10-18T19:58:51.386Z,15.77
2022-10-18T20:01:19.900Z,18.87
2022-10-18T20:03:47.671Z,23.20
2022-10-18T20:06:15.835Z,26.03
2022-10-18T20:08:43.905Z,20.43
2022-10-18T20:11:14.490Z,22.23
2022-10-18T20:13:42.022Z,22.43
2022-10-18T20:16:12.127Z,12.90
2022-10-18T20:18:39.988Z,17.27
2022-10-18T20:21:08.315Z,21.47
2022-10-18T20:23:36.659Z,15.00
2022-10-18T20:26:06.065Z,18.77
2022-10-18T20:28:36.055Z,15.53
2022-10-18T20:31:06.264Z,21.80
2022-10-18T20:33:34.952Z,14.03
2022-10-18T20:36:03.684Z,14.67
2022-10-18T20:38:32.849Z,13.90
2022-10-18T20:41:05.258Z,17.83
2022-10-18T20:43:33.175Z,13.27
2022-10-18T20:46:02.596Z,9.27
2022-10-18T20:48:30.857Z,15.67
2022-10-18T20:50:58.572Z,13.47
2022-10-18T20:53:26.119Z,17.50
2022-10-18T20:55:53.652Z,22.43
2022-10-18T20:58:21.132Z,18.00
2022-10-18T21:00:48.639Z,14.83
2022-10-18T21:03:17.424Z,19.80
2022-10-18T21:05:44.889Z,18.30
2022-10-18T21:08:12.358Z,13.13
2022-10-18T21:10:39.811Z,9.23
2022-10-18T21:13:07.321Z,15.47
2022-10-18T21:15:34.799Z,8.57
2022-10-18T21:18:02.261Z,15.37
2022-10-18T21:20:32.006Z,16.83
2022-10-18T21:22:59.544Z,22.33
2022-10-18T21:25:26.988Z,13.47
2022-10-18T21:27:54.666Z,14.23
2022-10-18T21:30:22.130Z,18.17
2022-10-18T21:32:52.360Z,13.57
2022-10-18T21:35:19.893Z,12.53
2022-10-18T21:37:48.710Z,9.17
2022-10-18T21:40:16.429Z,17.47
2022-10-18T21:42:43.901Z,12.57
2022-10-18T21:45:11.750Z,12.60
2022-10-18T21:47:39.239Z,6.60
2022-10-18T21:50:07.438Z,20.53
2022-10-18T21:52:35.073Z,7.47
2022-10-18T21:55:06.950Z,12.47
2022-10-18T22:00:08.033Z,8.00
2022-10-18T22:02:35.799Z,8.63
2022-10-18T22:05:07.035Z,12.67
2022-10-18T22:07:37.319Z,28.90
2022-10-18T22:10:07.109Z,9.10
2022-10-18T22:12:34.577Z,11.70
2022-10-18T22:15:02.582Z,13.63
2022-10-18T22:17:30.235Z,9.23
2022-10-18T22:19:57.816Z,7.47
2022-10-18T22:22:25.370Z,6.33
2022-10-18T22:24:52.878Z,10.67
2022-10-18T22:27:21.692Z,11.10
2022-10-18T22:29:49.136Z,18.10
2022-10-18T22:32:16.605Z,8.10
2022-10-18T22:34:44.099Z,11.57
2022-10-18T22:37:11.550Z,9.37
2022-10-18T22:39:39.020Z,9.70
2022-10-18T22:42:06.500Z,5.73
2022-10-18T22:44:35.333Z,7.17
2022-10-18T22:47:03.248Z,8.27
2022-10-18T22:49:30.722Z,8.93
2022-10-18T22:51:58.169Z,7.03
2022-10-18T22:54:25.669Z,10.40
2022-10-18T22:56:53.232Z,8.37
2022-10-18T22:59:20.822Z,16.20
2022-10-18T23:01:49.660Z,15.30
2022-10-18T23:04:17.139Z,8.10
2022-10-18T23:06:44.612Z,9.87
2022-10-18T23:09:12.532Z,10.10
2022-10-18T23:11:39.989Z,5.97
2022-10-18T23:14:08.293Z,21.47
2022-10-18T23:16:36.076Z,11.77
2022-10-18T23:19:05.082Z,15.60
2022-10-18T23:21:32.680Z,9.47
2022-10-18T23:24:00.242Z,7.63
2022-10-18T23:26:28.732Z,8.90
2022-10-18T23:28:56.410Z,13.40
2022-10-18T23:31:26.004Z,6.17
2022-10-18T23:33:55.205Z,12.47
2022-10-18T23:36:24.966Z,10.03
2022-10-18T23:38:52.805Z,7.13
2022-10-18T23:41:20.661Z,12.80
2022-10-18T23:43:48.373Z,10.23
2022-10-18T23:46:17.695Z,7.97
2022-10-18T23:48:45.813Z,12.10
2022-10-18T23:51:13.288Z,8.03
2022-10-18T23:53:42.277Z,15.07
2022-10-18T23:56:11.729Z,13.27
2022-10-18T23:58:40.120Z,13.80
